Terminal Aerodrome Forecast
Issued by NWS

Home | Current Version | Previous Version | Text Only | Print | Product List | Glossary On
Versions: 1 2 3 4 5 6 7 8 9 10 11 12 13 14 15 16
000
FTUS45 KSLC 270752 AAC
TAFOGD
TAF AMD
KOGD 270752Z 2708/2806 32011KT P6SM SCT090 SCT150
     FM270900 17007KT P6SM FEW090 SCT150
     FM271700 28008KT P6SM SCT100=

USA.gov is the U.S. government's official web portal to all federal, state and local government web resources and services.